createdAt,value
2023-03-02T00:38:17.894Z,51.68
2023-03-02T00:39:17.848Z,51.58
2023-03-02T00:40:17.976Z,51.93
2023-03-02T00:41:18.113Z,51.86
2023-03-02T00:42:18.275Z,51.74
2023-03-02T00:43:18.505Z,51.71
2023-03-02T00:44:18.618Z,51.60
2023-03-02T00:45:18.774Z,51.56
2023-03-02T00:46:19.029Z,51.91
2023-03-02T00:47:19.216Z,52.10
2023-03-02T00:48:19.403Z,51.87
2023-03-02T00:49:19.529Z,51.71
2023-03-02T00:50:19.651Z,51.80
2023-03-02T00:51:19.788Z,51.44
2023-03-02T00:52:19.920Z,51.24
2023-03-02T00:53:20.042Z,51.20
2023-03-02T00:54:20.175Z,51.17
2023-03-02T00:55:20.316Z,51.50
2023-03-02T00:56:20.442Z,51.56
2023-03-02T00:57:20.565Z,51.52
2023-03-02T00:58:20.688Z,52.12
2023-03-02T00:59:20.813Z,52.33
2023-03-02T01:00:20.931Z,52.27
2023-03-02T01:01:21.080Z,51.94
2023-03-02T01:02:21.273Z,51.72
2023-03-02T01:03:21.400Z,51.54
2023-03-02T01:04:21.463Z,51.69
2023-03-02T01:05:21.621Z,52.15
2023-03-02T01:06:21.746Z,51.96
2023-03-02T01:07:21.875Z,51.87
2023-03-02T01:08:22.017Z,52.00
2023-03-02T01:09:22.161Z,52.04
2023-03-02T01:10:22.315Z,51.83
2023-03-02T01:11:22.433Z,51.98
2023-03-02T01:12:22.553Z,52.09
2023-03-02T01:13:22.711Z,51.96
2023-03-02T01:14:22.809Z,52.25
2023-03-02T01:15:22.951Z,52.13
2023-03-02T01:16:23.095Z,52.46
2023-03-02T01:17:23.192Z,52.28
2023-03-02T01:18:23.329Z,52.24
2023-03-02T01:19:23.453Z,52.22
2023-03-02T01:20:23.593Z,52.13
2023-03-02T01:21:23.727Z,51.80
2023-03-02T01:22:23.862Z,51.81
2023-03-02T01:23:23.987Z,51.73
2023-03-02T01:24:24.110Z,51.99
2023-03-02T01:25:24.251Z,51.88
2023-03-02T01:26:24.379Z,51.79
2023-03-02T01:27:24.510Z,51.68
2023-03-02T01:28:24.649Z,51.65
2023-03-02T01:29:24.807Z,51.55
2023-03-02T01:30:24.978Z,51.67
2023-03-02T01:31:25.219Z,52.03
2023-03-02T01:32:25.395Z,51.93
2023-03-02T01:33:25.596Z,51.80
2023-03-02T01:34:25.801Z,51.78
2023-03-02T01:36:26.214Z,51.84
2023-03-02T01:37:26.424Z,52.01
2023-03-02T01:38:26.658Z,52.27
2023-03-02T01:39:26.848Z,52.47
2023-03-02T01:40:27.077Z,52.42
2023-03-02T01:41:27.349Z,52.18
2023-03-02T01:42:27.487Z,52.01
2023-03-02T01:43:27.686Z,51.98
2023-03-02T01:44:27.888Z,51.93
2023-03-02T01:45:28.255Z,52.02
2023-03-02T01:46:28.471Z,51.92
2023-03-02T01:47:28.750Z,52.33
2023-03-02T01:48:29.014Z,52.00
2023-03-02T01:49:29.250Z,51.88
2023-03-02T01:50:29.416Z,52.05
2023-03-02T01:51:29.586Z,52.03
2023-03-02T01:52:29.802Z,51.94
2023-03-02T01:54:30.373Z,51.91
2023-03-02T01:55:30.611Z,52.05
2023-03-02T01:56:31.331Z,52.01
2023-03-02T01:57:31.031Z,52.10
2023-03-02T01:58:31.160Z,52.00
2023-03-02T01:59:31.297Z,52.00
2023-03-02T02:00:31.428Z,51.96
2023-03-02T02:02:31.681Z,51.86
2023-03-02T02:54:07.853Z,54.71
2023-03-02T02:55:08.008Z,54.87
2023-03-02T02:56:08.218Z,55.24
2023-03-02T02:57:08.406Z,54.97
2023-03-02T02:58:08.637Z,55.35
2023-03-02T02:59:08.867Z,55.60
2023-03-02T03:00:09.087Z,55.52
2023-03-02T03:49:17.791Z,52.40
2023-03-02T04:42:27.893Z,54.68
2023-03-02T04:43:28.101Z,54.39
2023-03-02T04:44:28.322Z,54.79
2023-03-02T04:45:28.559Z,55.24
2023-03-02T04:46:28.860Z,55.10
2023-03-02T04:47:28.859Z,54.85
2023-03-02T04:48:29.123Z,54.42
2023-03-02T04:49:29.326Z,54.39
2023-03-02T04:50:29.533Z,54.11
2023-03-02T04:51:29.727Z,54.00
2023-03-02T04:52:29.928Z,54.37
2023-03-02T04:53:30.133Z,54.39
2023-03-02T04:54:30.360Z,54.38
2023-03-02T04:55:30.573Z,54.38
2023-03-02T04:56:31.110Z,54.48
2023-03-02T04:57:30.980Z,54.66
2023-03-02T04:58:30.765Z,55.19
2023-03-02T04:59:30.771Z,55.41
2023-03-02T05:00:33.274Z,55.69
2023-03-02T05:01:30.780Z,56.19
2023-03-02T05:02:30.814Z,56.78
2023-03-02T05:31:30.278Z,54.26
2023-03-02T05:33:30.072Z,54.14
2023-03-02T05:34:30.053Z,53.94
2023-03-02T05:35:30.051Z,54.07
2023-03-02T05:36:30.011Z,54.02
2023-03-02T05:37:29.981Z,54.31
2023-03-02T05:38:29.974Z,55.46
2023-03-02T05:39:30.673Z,56.53
2023-03-02T05:40:30.016Z,56.82
2023-03-02T05:41:30.037Z,56.97
2023-03-02T05:42:30.024Z,56.64
2023-03-02T05:43:30.034Z,57.29
2023-03-02T05:44:30.035Z,57.82
2023-03-02T05:45:30.049Z,58.25
2023-03-02T05:46:30.161Z,58.13
2023-03-02T05:47:30.089Z,58.27
2023-03-02T05:48:30.113Z,58.06
2023-03-02T05:49:30.127Z,58.00
2023-03-02T05:50:30.144Z,57.69
2023-03-02T05:51:30.155Z,57.76
2023-03-02T05:52:30.217Z,58.13
2023-03-02T05:53:30.320Z,58.58
2023-03-02T05:54:30.212Z,58.51
2023-03-02T05:55:30.223Z,59.27
2023-03-02T05:56:30.470Z,59.93
2023-03-02T05:57:30.218Z,60.20
2023-03-02T05:58:30.214Z,59.70
2023-03-02T05:59:30.204Z,59.97
2023-03-02T06:00:30.201Z,60.30
2023-03-02T06:01:30.221Z,59.57
2023-03-02T06:02:30.184Z,59.42
2023-03-02T06:03:30.218Z,59.19
2023-03-02T06:04:30.120Z,58.82
2023-03-02T06:05:30.178Z,58.44
2023-03-02T06:35:30.935Z,58.06
2023-03-02T08:39:37.877Z,49.06
2023-03-02T08:40:38.233Z,49.04
2023-03-02T08:41:38.312Z,49.07
2023-03-02T08:42:38.580Z,48.89
2023-03-02T08:43:38.688Z,48.78
2023-03-02T08:44:38.924Z,48.32
2023-03-02T08:45:39.063Z,48.65
2023-03-02T08:46:39.219Z,48.53
2023-03-02T08:47:39.408Z,48.39
2023-03-02T08:48:39.606Z,47.53
2023-03-02T08:49:40.193Z,47.49
2023-03-02T08:50:39.756Z,47.34
2023-03-02T08:51:39.720Z,47.26
2023-03-02T08:52:39.726Z,47.18
2023-03-02T08:53:39.676Z,46.98
2023-03-02T08:54:39.701Z,47.05
2023-03-02T08:55:39.634Z,47.10
2023-03-02T08:56:39.609Z,46.95
2023-03-02T08:57:39.578Z,46.69
2023-03-02T08:58:39.566Z,46.72
2023-03-02T08:59:39.561Z,46.52
2023-03-02T09:01:39.478Z,46.76
2023-03-02T09:02:39.364Z,46.78
2023-03-02T09:03:39.298Z,46.64
2023-03-02T09:04:39.367Z,46.76
2023-03-02T09:05:39.161Z,46.82
2023-03-02T09:06:39.088Z,46.82
2023-03-02T09:07:39.018Z,46.78
2023-03-02T09:08:38.994Z,46.56
2023-03-02T09:09:38.881Z,46.48
2023-03-02T09:10:38.820Z,46.21
2023-03-02T09:11:38.736Z,46.03
2023-03-02T09:12:38.710Z,46.07
2023-03-02T09:13:38.587Z,45.92
2023-03-02T09:14:38.564Z,45.88
2023-03-02T09:15:38.449Z,45.83
2023-03-02T09:16:38.588Z,45.72
2023-03-02T09:17:38.733Z,45.67
2023-03-02T09:18:38.871Z,45.60
2023-03-02T09:19:39.077Z,45.81
2023-03-02T09:20:39.280Z,45.57
2023-03-02T09:21:39.452Z,45.56
2023-03-02T09:22:39.654Z,45.40
2023-03-02T09:23:39.847Z,45.37
2023-03-02T09:24:40.169Z,44.97
2023-03-02T09:25:40.322Z,44.74
2023-03-02T09:27:40.426Z,44.96
2023-03-02T09:28:40.380Z,44.80
2023-03-02T09:29:40.343Z,44.76
2023-03-02T09:31:40.273Z,44.67
2023-03-02T09:32:40.377Z,44.60
2023-03-02T09:34:40.101Z,44.32
2023-03-02T09:35:40.035Z,44.86
2023-03-02T09:37:39.958Z,45.76
2023-03-02T09:39:39.860Z,45.49
2023-03-02T09:42:44.167Z,44.86
2023-03-02T09:58:38.090Z,43.98
2023-03-02T09:59:37.984Z,43.88
2023-03-02T10:00:37.923Z,43.51
2023-03-02T10:01:37.883Z,43.37
2023-03-02T10:02:37.854Z,43.59
2023-03-02T10:04:37.800Z,43.42
2023-03-02T10:13:38.732Z,42.79
2023-03-02T10:25:37.744Z,42.45
2023-03-02T10:28:38.716Z,42.73
2023-03-02T10:39:39.228Z,42.81
2023-03-02T12:03:38.266Z,37.16
2023-03-02T12:13:37.934Z,35.55
2023-03-02T12:14:37.988Z,35.69
2023-03-02T12:15:38.187Z,35.46
2023-03-02T12:16:38.344Z,35.32
2023-03-02T12:17:38.444Z,35.38
2023-03-02T12:18:38.532Z,35.57
2023-03-02T12:19:38.726Z,35.36
2023-03-02T12:20:38.755Z,35.14
2023-03-02T12:21:38.944Z,35.10
2023-03-02T12:22:39.074Z,35.45
2023-03-02T12:23:39.177Z,35.35
2023-03-02T12:24:39.303Z,35.11
2023-03-02T12:25:39.392Z,35.39
2023-03-02T12:26:39.583Z,34.59
2023-03-02T12:27:39.713Z,34.16
2023-03-02T12:28:39.769Z,34.05
2023-03-02T12:29:39.948Z,33.92
2023-03-02T12:30:40.136Z,33.96
2023-03-02T12:31:40.194Z,33.58
2023-03-02T12:32:40.329Z,33.73
2023-03-02T12:33:40.435Z,33.17
2023-03-02T12:34:40.507Z,33.43
2023-03-02T12:35:40.698Z,33.68
2023-03-02T12:36:40.848Z,33.62
2023-03-02T12:37:41.017Z,33.26
2023-03-02T12:38:41.167Z,32.05
2023-03-02T12:39:41.280Z,32.37
2023-03-02T12:40:41.422Z,32.19
2023-03-02T12:41:41.509Z,32.34
2023-03-02T12:42:41.660Z,32.76
2023-03-02T12:43:41.832Z,31.90
2023-03-02T12:44:41.931Z,31.99
2023-03-02T12:45:42.017Z,30.96
2023-03-02T12:46:42.154Z,31.01
2023-03-02T12:57:42.590Z,29.67
2023-03-02T12:58:42.397Z,30.15
2023-03-02T12:59:42.205Z,29.65
2023-03-02T13:00:42.067Z,29.97
2023-03-02T13:01:41.831Z,29.56
2023-03-02T13:02:41.693Z,29.68
2023-03-02T13:03:41.481Z,29.02
2023-03-02T13:04:41.274Z,28.91
2023-03-02T13:05:41.075Z,29.37
2023-03-02T13:06:40.896Z,29.16
2023-03-02T13:07:40.743Z,28.95
2023-03-02T13:08:41.173Z,28.63
2023-03-02T13:09:47.771Z,28.08
2023-03-02T13:10:41.232Z,28.09
2023-03-02T13:11:40.023Z,28.43
2023-03-02T13:12:39.811Z,28.78
2023-03-02T13:13:39.623Z,28.32
2023-03-02T13:14:39.412Z,28.27
2023-03-02T13:15:39.202Z,28.50
2023-03-02T13:16:39.016Z,28.41
2023-03-02T13:17:38.806Z,28.00
2023-03-02T13:18:38.601Z,28.27
2023-03-02T13:19:38.426Z,27.69
2023-03-02T13:20:38.289Z,26.98
2023-03-02T13:21:38.159Z,27.42
2023-03-02T13:22:38.076Z,27.89
2023-03-02T13:23:37.865Z,27.07
2023-03-02T13:48:37.794Z,26.19
2023-03-02T13:49:37.946Z,25.88
2023-03-02T13:50:38.052Z,25.62
2023-03-02T13:51:38.163Z,26.04
2023-03-02T13:52:38.263Z,26.26
2023-03-02T13:53:38.476Z,25.96
2023-03-02T13:54:38.504Z,25.82
2023-03-02T13:55:38.688Z,26.30
2023-03-02T13:56:38.806Z,25.94
2023-03-02T13:57:38.954Z,25.41
2023-03-02T13:58:39.099Z,25.12
2023-03-02T13:59:39.137Z,25.76
2023-03-02T14:00:39.232Z,25.70
2023-03-02T14:01:39.427Z,25.96
2023-03-02T14:02:39.491Z,25.75
2023-03-02T14:03:39.546Z,25.43
2023-03-02T14:04:39.757Z,25.60
2023-03-02T14:05:39.848Z,25.74
2023-03-02T14:06:39.888Z,25.90
2023-03-02T14:07:39.973Z,25.44
2023-03-02T14:08:40.153Z,25.29
2023-03-02T14:09:40.205Z,25.52
2023-03-02T14:10:40.392Z,25.69
2023-03-02T15:04:47.747Z,26.78
2023-03-02T15:06:48.035Z,27.31
2023-03-02T16:05:50.382Z,33.87
2023-03-02T17:00:57.913Z,37.44
2023-03-02T17:01:57.963Z,37.51
2023-03-02T17:02:58.192Z,37.55
2023-03-02T17:03:58.386Z,37.53
2023-03-02T17:04:58.576Z,37.46
2023-03-02T17:05:58.700Z,37.29
2023-03-02T17:07:00.709Z,37.49
2023-03-02T17:07:58.827Z,37.54
2023-03-02T17:08:58.738Z,37.50
2023-03-02T17:09:58.647Z,37.58
2023-03-02T17:10:58.566Z,37.60
2023-03-02T17:11:58.745Z,37.68
2023-03-02T17:12:58.965Z,37.86
2023-03-02T17:13:59.121Z,37.66
2023-03-02T17:14:59.287Z,37.75
2023-03-02T17:15:59.467Z,37.85
2023-03-02T17:16:59.591Z,37.96
2023-03-02T17:17:59.843Z,38.03
2023-03-02T17:19:00.317Z,38.27
2023-03-02T17:19:59.867Z,38.23
2023-03-02T17:20:59.820Z,38.02
2023-03-02T17:21:59.731Z,38.32
2023-03-02T17:22:59.650Z,38.54
2023-03-02T17:23:59.863Z,38.66
2023-03-02T17:25:00.037Z,38.76
2023-03-02T17:26:00.218Z,39.04
2023-03-02T17:27:00.407Z,38.81
2023-03-02T17:28:00.510Z,38.88
2023-03-02T17:29:00.668Z,38.59
2023-03-02T17:30:01.219Z,38.82
2023-03-02T17:31:02.988Z,39.00
2023-03-02T17:32:01.010Z,39.11
2023-03-02T17:33:00.828Z,39.09
2023-03-02T17:34:00.703Z,38.90
2023-03-02T17:35:00.567Z,39.32
2023-03-02T17:36:00.660Z,39.20
2023-03-02T17:37:00.919Z,39.32
2023-03-02T17:38:01.065Z,39.34
2023-03-02T17:39:01.130Z,39.18
2023-03-02T17:40:01.314Z,38.81
2023-03-02T17:41:01.425Z,38.71
2023-03-02T17:42:01.617Z,38.63
2023-03-02T17:43:01.758Z,38.85
2023-03-02T17:44:01.932Z,38.94
2023-03-02T17:45:02.057Z,39.10
2023-03-02T17:46:02.307Z,39.02
2023-03-02T17:47:02.415Z,39.25
2023-03-02T19:09:02.387Z,41.60
2023-03-02T19:10:02.273Z,41.75
2023-03-02T19:11:02.198Z,41.78
2023-03-02T19:12:02.086Z,41.72
2023-03-02T19:13:01.986Z,41.60
2023-03-02T19:14:01.915Z,41.55
2023-03-02T19:15:01.794Z,41.50
2023-03-02T19:16:01.737Z,41.46
2023-03-02T19:17:01.604Z,41.73
2023-03-02T19:18:01.507Z,41.79
2023-03-02T19:19:01.464Z,41.75
2023-03-02T19:20:01.419Z,41.76
2023-03-02T19:21:01.399Z,41.98
2023-03-02T19:22:01.329Z,41.89
2023-03-02T19:23:01.293Z,41.91
2023-03-02T19:24:01.252Z,41.90
2023-03-02T19:25:01.224Z,41.90
2023-03-02T19:26:01.188Z,41.97
2023-03-02T19:27:01.280Z,41.98
2023-03-02T19:28:01.362Z,42.20
2023-03-02T19:29:01.559Z,42.20
2023-03-02T19:30:01.666Z,42.18
2023-03-02T19:31:01.789Z,42.16
2023-03-02T19:32:01.975Z,42.21
2023-03-02T19:33:02.045Z,42.14
2023-03-02T19:34:02.156Z,42.30
2023-03-02T19:35:02.255Z,42.35
2023-03-02T19:36:02.397Z,42.48
2023-03-02T19:37:02.458Z,42.49
2023-03-02T19:38:02.556Z,42.48
2023-03-02T19:39:02.681Z,42.56
2023-03-02T19:40:02.795Z,42.54
2023-03-02T19:41:02.918Z,42.51
2023-03-02T19:42:03.043Z,42.52
2023-03-02T19:43:03.192Z,42.62
2023-03-02T19:44:03.346Z,42.72
2023-03-02T19:45:03.498Z,42.69
2023-03-02T19:46:03.663Z,42.67
2023-03-02T19:47:03.769Z,42.71
2023-03-02T19:48:03.926Z,42.87
2023-03-02T19:49:04.060Z,42.94
2023-03-02T19:50:04.212Z,42.88
2023-03-02T19:51:04.353Z,42.93
2023-03-02T19:52:04.518Z,42.77
2023-03-02T19:53:04.659Z,42.82
2023-03-02T19:54:04.841Z,42.86
2023-03-02T19:55:04.975Z,42.90
2023-03-02T19:56:05.144Z,42.89
2023-03-02T19:57:05.310Z,42.92
2023-03-02T19:58:05.469Z,43.05
2023-03-02T19:59:05.610Z,42.99
2023-03-02T20:00:05.775Z,42.94
2023-03-02T20:01:05.832Z,43.04
2023-03-02T20:02:06.030Z,43.19
2023-03-02T20:03:06.839Z,43.21
2023-03-02T20:04:06.150Z,43.24
2023-03-02T20:05:06.096Z,43.14
2023-03-02T20:06:06.052Z,43.06
2023-03-02T20:07:06.025Z,43.09
2023-03-02T20:08:05.978Z,43.05
2023-03-02T20:09:05.957Z,43.09
2023-03-02T20:10:05.892Z,43.07
2023-03-02T20:11:05.869Z,43.14
2023-03-02T20:12:05.818Z,43.24
2023-03-02T20:13:05.766Z,43.40
2023-03-02T20:14:05.727Z,43.46
2023-03-02T20:15:05.690Z,43.52
2023-03-02T20:16:05.658Z,43.41
2023-03-02T20:17:05.607Z,43.31
2023-03-02T20:18:05.592Z,43.33
2023-03-02T20:19:05.561Z,43.31
2023-03-02T20:20:05.531Z,43.19
2023-03-02T20:21:05.510Z,43.14
2023-03-02T20:22:05.474Z,43.34
2023-03-02T20:23:05.416Z,43.10
2023-03-02T20:24:05.380Z,43.12
2023-03-02T20:25:05.336Z,43.18
2023-03-02T20:26:05.322Z,43.09
2023-03-02T20:27:05.262Z,43.01
2023-03-02T20:28:05.224Z,43.06
2023-03-02T20:29:05.212Z,43.09
2023-03-02T20:30:05.162Z,43.12
2023-03-02T20:31:05.233Z,43.14
2023-03-02T20:32:05.197Z,43.07
2023-03-02T20:33:05.097Z,43.10
2023-03-02T20:34:05.078Z,43.06
2023-03-02T20:35:05.047Z,43.06
2023-03-02T20:36:05.019Z,43.22
2023-03-02T20:37:04.982Z,43.17
2023-03-02T21:50:07.831Z,44.46
2023-03-02T21:51:07.948Z,44.43
2023-03-02T21:52:08.173Z,44.44
2023-03-02T21:53:08.276Z,44.51
2023-03-02T21:54:08.500Z,44.54
2023-03-02T21:55:08.711Z,44.47
2023-03-02T21:56:08.823Z,44.54
2023-03-02T21:57:09.046Z,44.47
2023-03-02T21:58:09.144Z,44.56
2023-03-02T21:59:09.378Z,44.56
2023-03-02T22:00:09.479Z,44.56
2023-03-02T22:01:09.581Z,44.53
2023-03-02T22:02:09.831Z,44.56
2023-03-02T22:03:09.938Z,44.64
2023-03-02T22:04:10.070Z,44.60
2023-03-02T22:05:10.319Z,44.71
2023-03-02T22:06:10.441Z,44.58
2023-03-02T22:07:10.670Z,44.60
2023-03-02T22:08:10.776Z,44.65
2023-03-02T22:09:11.013Z,44.61
2023-03-02T22:10:11.223Z,44.65
2023-03-02T22:11:11.310Z,44.65
2023-03-02T22:54:17.860Z,44.98
2023-03-02T22:55:17.987Z,44.98
2023-03-02T22:56:20.081Z,44.81
2023-03-02T22:57:18.289Z,44.81
2023-03-02T22:58:18.103Z,44.96
2023-03-02T22:59:18.047Z,45.05
2023-03-02T23:00:18.010Z,45.08
2023-03-02T23:01:17.965Z,45.09
2023-03-02T23:02:17.907Z,45.16
2023-03-02T23:03:17.852Z,45.06
2023-03-02T23:04:17.840Z,45.05
2023-03-02T23:05:17.762Z,44.94
2023-03-02T23:11:17.767Z,45.52
2023-03-02T23:12:17.998Z,45.46
2023-03-02T23:13:18.146Z,45.35
2023-03-02T23:14:18.416Z,45.32
2023-03-02T23:15:18.578Z,45.40
2023-03-02T23:16:18.885Z,45.43
2023-03-02T23:17:18.987Z,45.31
2023-03-02T23:18:19.175Z,45.27
2023-03-02T23:19:19.367Z,45.20
2023-03-02T23:20:19.621Z,45.20
2023-03-02T23:21:19.812Z,45.39
2023-03-02T23:22:20.110Z,45.24
2023-03-02T23:23:20.275Z,45.22
2023-03-02T23:24:20.424Z,45.23
2023-03-02T23:25:20.614Z,45.29
2023-03-02T23:26:20.817Z,45.37
2023-03-02T23:27:20.975Z,45.61
2023-03-02T23:28:21.164Z,45.66
2023-03-02T23:29:21.425Z,45.56
2023-03-02T23:30:21.597Z,45.45
2023-03-02T23:31:21.848Z,45.36
2023-03-02T23:32:22.078Z,45.34
2023-03-02T23:33:22.200Z,45.36
2023-03-02T23:34:22.393Z,45.33
2023-03-02T23:35:22.593Z,45.27
2023-03-02T23:36:22.777Z,45.39
2023-03-02T23:37:22.944Z,45.35
2023-03-02T23:38:23.139Z,45.46
2023-03-02T23:39:23.311Z,45.52
2023-03-02T23:40:23.521Z,45.63
2023-03-02T23:41:23.751Z,45.56
2023-03-02T23:42:23.908Z,45.57
2023-03-02T23:43:24.055Z,45.58
2023-03-02T23:44:24.236Z,45.70
2023-03-02T23:45:24.401Z,45.67
2023-03-02T23:46:24.583Z,45.70
2023-03-02T23:47:24.755Z,45.82
2023-03-02T23:48:24.920Z,46.02
2023-03-02T23:49:25.101Z,46.17
2023-03-02T23:50:25.291Z,46.29
2023-03-02T23:51:25.508Z,46.47
2023-03-02T23:52:25.669Z,46.41
2023-03-02T23:53:25.906Z,46.79
2023-03-02T23:54:26.095Z,46.80
2023-03-02T23:55:26.297Z,46.77
2023-03-02T23:56:26.529Z,47.00
2023-03-02T23:57:26.718Z,46.97
2023-03-02T23:58:26.888Z,46.84
2023-03-02T23:59:27.142Z,46.89
